Time;durP1;ratioP1;P1;durP2;ratioP2;P2;SDS_P1;SDS_P2;PMS_P1;PMS_P2;Temp;Humidity;BMP_temperature;BMP_pressure;BME280_temperature;BME280_humidity;BME280_pressure;Samples;Min_cycle;Max_cycle;Signal;HPM_P1;HPM_P2
2023/06/30 00:01:48;;;;;;;2.88;0.77;;;23.90;48.70;;;;;;5052785;28;20017;-75
2023/06/30 00:04:18;;;;;;;1.58;0.70;;;23.90;48.70;;;;;;5052779;28;20032;-77
2023/06/30 00:06:45;;;;;;;1.58;0.80;;;23.90;48.70;;;;;;5053052;28;20017;-75
2023/06/30 00:09:11;;;;;;;1.30;0.65;;;23.90;48.70;;;;;;5053027;28;20033;-77
2023/06/30 00:11:38;;;;;;;1.88;0.60;;;23.90;48.70;;;;;;5053021;28;20021;-77
2023/06/30 00:14:05;;;;;;;1.50;0.70;;;23.90;48.70;;;;;;5052354;28;20049;-77
2023/06/30 00:16:33;;;;;;;1.60;0.63;;;23.90;48.70;;;;;;5052947;28;20035;-76
2023/06/30 00:19:01;;;;;;;1.05;0.50;;;23.90;48.70;;;;;;5052603;28;20086;-77
2023/06/30 00:21:27;;;;;;;0.93;0.52;;;23.80;48.70;;;;;;5052446;28;20383;-77
2023/06/30 00:23:53;;;;;;;0.88;0.65;;;23.80;48.60;;;;;;5052333;28;20025;-76
2023/06/30 00:26:18;;;;;;;1.35;0.40;;;23.80;48.60;;;;;;5052462;28;20384;-77
2023/06/30 00:28:44;;;;;;;1.38;0.60;;;24.10;65.50;;;;;;5052300;28;20029;-76
2023/06/30 00:31:09;;;;;;;1.77;0.70;;;23.80;48.60;;;;;;5052296;28;20033;-76
2023/06/30 00:33:35;;;;;;;1.73;0.50;;;23.80;48.70;;;;;;5052018;28;20484;-76
2023/06/30 00:36:01;;;;;;;1.33;0.70;;;23.80;48.60;;;;;;5052135;28;20021;-76
2023/06/30 00:38:26;;;;;;;1.90;0.60;;;23.80;48.70;;;;;;5052239;28;20033;-77
2023/06/30 00:40:52;;;;;;;0.98;0.60;;;23.80;48.60;;;;;;5051964;28;20025;-76
2023/06/30 00:43:18;;;;;;;1.88;0.63;;;23.80;48.60;;;;;;5051846;28;20485;-76
2023/06/30 00:45:44;;;;;;;1.23;0.57;;;23.80;48.60;;;;;;5052323;28;20021;-76
2023/06/30 00:48:11;;;;;;;0.77;0.55;;;23.70;48.50;;;;;;5052164;28;20488;-76
2023/06/30 00:50:37;;;;;;;1.50;0.60;;;23.70;48.60;;;;;;5052075;28;20024;-76
2023/06/30 00:53:04;;;;;;;2.35;0.70;;;23.70;48.60;;;;;;5051914;28;20378;-76
2023/06/30 00:55:31;;;;;;;1.10;0.68;;;23.70;48.60;;;;;;5051820;28;20039;-76
2023/06/30 00:57:57;;;;;;;1.15;0.70;;;23.60;48.60;;;;;;5052098;28;20025;-77
2023/06/30 01:00:23;;;;;;;1.58;0.50;;;23.60;48.60;;;;;;5051486;28;20025;-77
2023/06/30 01:02:55;;;;;;;1.40;0.70;;;23.60;48.50;;;;;;5051570;28;20037;-77
2023/06/30 01:05:27;;;;;;;1.23;0.52;;;23.60;48.60;;;;;;5051925;28;20029;-77
2023/06/30 01:08:17;;;;;;;1.77;0.60;;;23.60;48.50;;;;;;5052035;28;20025;-77
2023/06/30 01:10:45;;;;;;;2.47;0.70;;;23.60;48.50;;;;;;5051963;28;20021;-77
2023/06/30 01:13:12;;;;;;;1.42;0.57;;;23.60;48.60;;;;;;5051407;28;20049;-77
2023/06/30 01:15:40;;;;;;;1.45;0.60;;;23.50;48.50;;;;;;5052239;28;20063;-78
2023/06/30 01:18:09;;;;;;;1.85;0.63;;;23.50;48.50;;;;;;5051841;28;20021;-78
2023/06/30 01:20:40;;;;;;;0.77;0.40;;;23.60;48.50;;;;;;5051469;28;20013;-78
2023/06/30 01:23:12;;;;;;;0.98;0.57;;;23.50;48.50;;;;;;5051697;28;20028;-78
2023/06/30 01:25:39;;;;;;;1.77;0.73;;;23.50;48.50;;;;;;5051715;28;20135;-78
2023/06/30 01:28:07;;;;;;;1.30;0.52;;;23.50;48.50;;;;;;5051611;28;20021;-77
2023/06/30 01:30:33;;;;;;;1.95;0.75;;;23.50;48.50;;;;;;5051520;28;20025;-77
2023/06/30 01:33:00;;;;;;;0.55;0.50;;;23.50;48.60;;;;;;5051313;28;20483;-78
2023/06/30 01:35:27;;;;;;;1.40;0.70;;;23.50;48.60;;;;;;5051538;28;20061;-78
2023/06/30 01:37:54;;;;;;;1.35;0.50;;;23.50;48.50;;;;;;5051526;28;20365;-78
2023/06/30 01:40:21;;;;;;;2.17;0.85;;;23.50;48.50;;;;;;5051164;28;20475;-78
2023/06/30 01:42:50;;;;;;;0.50;0.30;;;23.50;48.50;;;;;;5051913;28;20021;-78
2023/06/30 01:45:17;;;;;;;1.17;0.35;;;23.40;48.50;;;;;;5051472;28;20431;-78
2023/06/30 01:47:44;;;;;;;1.58;0.80;;;23.40;48.50;;;;;;5051352;28;20446;-78
2023/06/30 01:50:11;;;;;;;2.30;0.40;;;23.40;48.40;;;;;;5050996;28;20060;-78
2023/06/30 01:52:37;;;;;;;1.02;0.47;;;23.40;49.10;;;;;;5051386;28;20021;-78
2023/06/30 01:55:04;;;;;;;1.05;0.40;;;23.40;48.40;;;;;;5051011;28;20543;-77
2023/06/30 01:57:30;;;;;;;1.05;0.68;;;23.40;48.50;;;;;;5051431;28;20100;-78
2023/06/30 01:59:56;;;;;;;1.17;0.65;;;23.30;48.40;;;;;;5051154;28;20441;-76
2023/06/30 02:02:22;;;;;;;0.70;0.47;;;23.30;48.40;;;;;;5051190;28;20379;-77
2023/06/30 02:04:47;;;;;;;1.92;0.40;;;23.40;48.50;;;;;;5050958;28;20036;-78
2023/06/30 02:07:13;;;;;;;1.25;0.57;;;23.30;48.40;;;;;;5050977;28;20215;-78
2023/06/30 02:09:39;;;;;;;1.77;0.60;;;23.30;48.40;;;;;;5050878;28;20031;-77
2023/06/30 02:12:05;;;;;;;1.60;0.65;;;23.30;48.40;;;;;;5052138;28;20119;-77
2023/06/30 02:14:31;;;;;;;1.30;0.52;;;23.30;48.40;;;;;;5054916;28;20131;-77
2023/06/30 02:16:56;;;;;;;0.70;0.52;;;23.30;48.30;;;;;;5053375;28;20052;-77
2023/06/30 02:19:23;;;;;;;0.60;0.40;;;23.30;48.40;;;;;;5054742;28;20029;-77
2023/06/30 02:21:50;;;;;;;1.75;0.68;;;23.30;48.40;;;;;;5054864;28;20529;-77
2023/06/30 02:24:16;;;;;;;1.00;0.50;;;23.30;48.40;;;;;;5054863;28;20025;-77
2023/06/30 02:26:42;;;;;;;2.05;0.50;;;23.30;48.40;;;;;;5054630;28;20035;-77
2023/06/30 02:29:07;;;;;;;1.67;0.60;;;23.20;48.30;;;;;;5054579;28;20063;-75
2023/06/30 02:31:33;;;;;;;1.63;0.50;;;23.20;48.30;;;;;;5054390;28;20060;-76
2023/06/30 02:33:59;;;;;;;1.35;0.40;;;23.30;48.50;;;;;;5054261;28;20098;-77
2023/06/30 02:36:26;;;;;;;1.13;0.40;;;23.20;48.40;;;;;;5054495;28;20411;-76
2023/06/30 02:38:52;;;;;;;1.08;0.43;;;23.20;48.40;;;;;;5054537;28;20476;-76
2023/06/30 02:41:18;;;;;;;2.15;0.70;;;23.20;48.40;;;;;;5054575;28;20476;-76
2023/06/30 02:43:44;;;;;;;1.27;0.55;;;23.20;48.40;;;;;;5054413;28;20025;-76
2023/06/30 02:46:10;;;;;;;2.15;0.60;;;23.20;48.40;;;;;;5054307;28;20044;-76
2023/06/30 02:48:36;;;;;;;1.65;0.70;;;23.10;48.40;;;;;;5052845;28;20025;-76
2023/06/30 02:51:05;;;;;;;1.02;0.50;;;23.10;47.80;;;;;;5054243;28;20021;-76
2023/06/30 02:53:33;;;;;;;2.25;0.80;;;23.10;48.40;;;;;;5054177;28;20035;-76
2023/06/30 02:55:59;;;;;;;0.90;0.63;;;23.10;48.40;;;;;;5053894;28;20029;-76
2023/06/30 02:58:25;;;;;;;1.30;0.70;;;23.10;48.40;;;;;;5053974;28;20021;-76
2023/06/30 03:00:51;;;;;;;2.97;0.70;;;23.10;48.40;;;;;;5054035;28;20061;-76
2023/06/30 03:03:17;;;;;;;1.70;0.60;;;23.10;48.40;;;;;;5053762;28;20075;-76
2023/06/30 03:05:43;;;;;;;0.93;0.50;;;23.00;48.40;;;;;;5053678;28;20066;-76
2023/06/30 03:08:10;;;;;;;1.70;0.60;;;23.00;48.40;;;;;;5054175;28;20020;-76
2023/06/30 03:10:35;;;;;;;1.27;0.52;;;23.00;49.00;;;;;;5053585;28;20394;-76
2023/06/30 03:13:01;;;;;;;0.52;0.40;;;23.00;48.40;;;;;;5051927;28;20044;-76
2023/06/30 03:15:27;;;;;;;1.35;0.40;;;23.00;48.40;;;;;;5053633;28;20044;-76
2023/06/30 03:17:55;;;;;;;1.13;0.50;;;23.00;48.40;;;;;;5053728;28;20013;-76
2023/06/30 03:20:21;;;;;;;1.20;0.50;;;23.00;48.40;;;;;;5053692;28;20021;-76
2023/06/30 03:22:46;;;;;;;0.93;0.50;;;23.00;48.40;;;;;;5035297;28;20021;-76
2023/06/30 03:25:12;;;;;;;1.45;0.50;;;23.00;48.40;;;;;;5053497;28;20021;-76
2023/06/30 03:27:37;;;;;;;1.33;0.63;;;23.00;48.40;;;;;;5053547;28;20025;-76
2023/06/30 03:30:04;;;;;;;0.85;0.57;;;23.00;48.50;;;;;;5053611;28;20025;-76
2023/06/30 03:32:31;;;;;;;0.73;0.57;;;22.90;48.30;;;;;;5053201;28;20078;-76
2023/06/30 03:34:56;;;;;;;0.82;0.40;;;22.90;48.40;;;;;;5052967;28;20041;-76
2023/06/30 03:37:22;;;;;;;0.80;0.47;;;22.90;48.30;;;;;;5053656;28;20048;-76
2023/06/30 03:39:48;;;;;;;1.10;0.43;;;22.90;48.30;;;;;;5053079;28;20050;-76
2023/06/30 03:42:13;;;;;;;0.93;0.40;;;22.90;48.40;;;;;;5052978;28;20479;-76
2023/06/30 03:44:39;;;;;;;1.40;0.75;;;22.90;48.40;;;;;;5052984;28;20515;-76
2023/06/30 03:47:05;;;;;;;1.48;0.47;;;22.90;48.30;;;;;;5053068;28;20017;-76
2023/06/30 03:49:30;;;;;;;0.75;0.63;;;22.90;48.30;;;;;;5053038;28;20094;-76
2023/06/30 03:51:56;;;;;;;1.30;0.50;;;22.90;48.30;;;;;;5052947;28;20391;-76
2023/06/30 03:54:22;;;;;;;0.93;0.60;;;22.90;48.30;;;;;;5052679;28;20499;-76
2023/06/30 03:56:47;;;;;;;1.27;0.73;;;22.80;48.30;;;;;;5052851;28;20104;-76
2023/06/30 03:59:13;;;;;;;0.65;0.40;;;22.80;48.30;;;;;;5052627;28;20103;-76
2023/06/30 04:01:39;;;;;;;0.82;0.40;;;22.80;48.40;;;;;;5052596;28;20024;-76
2023/06/30 04:04:06;;;;;;;0.60;0.40;;;22.80;48.40;;;;;;5052819;28;20462;-76
2023/06/30 04:06:33;;;;;;;0.38;0.38;;;22.80;48.40;;;;;;5053052;28;20076;-76
2023/06/30 04:08:59;;;;;;;1.17;0.55;;;22.80;48.40;;;;;;5052592;28;20033;-76
2023/06/30 04:11:25;;;;;;;1.90;0.50;;;22.80;48.40;;;;;;5051174;28;20021;-76
2023/06/30 04:13:51;;;;;;;0.73;0.50;;;22.80;48.30;;;;;;5052192;28;20118;-76
2023/06/30 04:16:17;;;;;;;0.90;0.45;;;22.80;48.40;;;;;;5052364;28;20025;-76
2023/06/30 04:18:43;;;;;;;1.45;0.60;;;22.70;48.30;;;;;;5051176;28;20021;-76
2023/06/30 04:21:09;;;;;;;1.42;0.70;;;22.70;48.30;;;;;;5052293;28;20033;-76
2023/06/30 04:23:36;;;;;;;0.63;0.40;;;22.70;48.90;;;;;;5052192;28;20029;-76
2023/06/30 04:26:01;;;;;;;1.38;0.40;;;22.70;48.30;;;;;;5052154;28;20039;-76
2023/06/30 04:28:27;;;;;;;0.50;0.32;;;22.70;48.30;;;;;;5052051;28;20021;-76
2023/06/30 04:30:53;;;;;;;1.02;0.45;;;22.70;48.30;;;;;;5051995;28;20025;-76
2023/06/30 04:33:18;;;;;;;1.80;0.55;;;22.70;48.30;;;;;;5052371;28;20395;-76
2023/06/30 04:35:44;;;;;;;0.82;0.60;;;22.70;48.90;;;;;;5049995;28;20108;-76
2023/06/30 04:38:10;;;;;;;1.25;0.60;;;22.70;48.30;;;;;;5051948;28;20055;-76
2023/06/30 04:40:35;;;;;;;0.75;0.43;;;22.70;48.30;;;;;;5051875;28;20526;-76
2023/06/30 04:43:02;;;;;;;1.13;0.50;;;22.70;48.30;;;;;;5051802;28;20036;-76
2023/06/30 04:45:28;;;;;;;1.48;0.77;;;22.70;48.30;;;;;;5052068;28;20017;-76
2023/06/30 04:47:54;;;;;;;1.40;0.55;;;22.70;48.30;;;;;;5052054;28;20052;-76
2023/06/30 04:50:23;;;;;;;1.42;0.55;;;22.70;48.30;;;;;;5051584;28;20029;-76
2023/06/30 04:52:49;;;;;;;0.73;0.40;;;22.60;48.20;;;;;;5051977;28;20048;-76
2023/06/30 04:55:15;;;;;;;0.55;0.50;;;22.70;48.40;;;;;;5050293;28;20037;-76
2023/06/30 04:57:41;;;;;;;2.47;0.55;;;22.70;48.50;;;;;;5051904;28;20025;-76
2023/06/30 05:00:08;;;;;;;1.15;0.50;;;22.60;48.20;;;;;;5051581;28;20391;-76
2023/06/30 05:02:33;;;;;;;1.00;0.50;;;22.60;48.50;;;;;;5052016;28;20083;-76
2023/06/30 05:04:59;;;;;;;0.75;0.50;;;22.70;48.50;;;;;;5051728;28;20422;-76
2023/06/30 05:07:24;;;;;;;1.10;0.30;;;22.60;48.50;;;;;;5051465;28;20541;-76
2023/06/30 05:09:50;;;;;;;0.95;0.50;;;22.60;48.50;;;;;;5051453;28;20029;-76
2023/06/30 05:12:16;;;;;;;0.93;0.40;;;22.60;48.60;;;;;;5051228;28;20092;-76
2023/06/30 05:14:41;;;;;;;1.15;0.70;;;22.60;48.50;;;;;;5051219;28;20033;-76
2023/06/30 05:17:07;;;;;;;1.10;0.45;;;22.60;48.20;;;;;;5051411;28;20513;-76
2023/06/30 05:19:33;;;;;;;1.67;0.50;;;22.60;48.60;;;;;;5051353;28;20013;-77
2023/06/30 05:21:58;;;;;;;1.25;0.50;;;22.60;48.70;;;;;;5051297;28;20068;-76
2023/06/30 05:24:24;;;;;;;0.82;0.50;;;22.60;48.50;;;;;;5051077;28;20017;-76
2023/06/30 05:26:50;;;;;;;0.85;0.45;;;22.60;48.80;;;;;;5051111;28;20031;-75
2023/06/30 05:29:16;;;;;;;0.98;0.40;;;22.80;67.00;;;;;;5051098;28;20044;-75
2023/06/30 05:31:42;;;;;;;0.60;0.22;;;22.60;48.70;;;;;;5050193;28;20021;-75
2023/06/30 05:34:09;;;;;;;0.50;0.40;;;22.60;48.60;;;;;;5056909;28;20106;-74
2023/06/30 05:36:35;;;;;;;1.10;0.47;;;22.60;48.60;;;;;;5051066;28;20017;-76
2023/06/30 05:39:01;;;;;;;0.73;0.45;;;23.40;49.10;;;;;;5051036;28;20590;-75
2023/06/30 05:41:26;;;;;;;0.75;0.40;;;22.60;48.60;;;;;;5051114;28;20029;-77
2023/06/30 05:43:52;;;;;;;0.40;0.30;;;22.60;48.50;;;;;;5051076;28;20036;-76
2023/06/30 05:46:18;;;;;;;0.80;0.40;;;22.60;48.60;;;;;;5052174;28;20071;-75
2023/06/30 05:48:43;;;;;;;0.75;0.32;;;22.60;48.70;;;;;;5055027;28;20108;-75
2023/06/30 05:51:09;;;;;;;0.40;0.30;;;22.70;48.70;;;;;;5055084;28;20024;-76
2023/06/30 05:53:34;;;;;;;1.58;0.52;;;22.70;65.80;;;;;;5054844;28;20091;-77
2023/06/30 05:56:00;;;;;;;0.95;0.47;;;22.60;48.70;;;;;;5054999;28;20055;-75
2023/06/30 05:58:26;;;;;;;1.17;0.40;;;22.60;48.70;;;;;;5055421;28;20364;-75
2023/06/30 06:00:51;;;;;;;0.95;0.40;;;22.60;48.80;;;;;;5054965;28;20033;-75
2023/06/30 06:03:17;;;;;;;0.50;0.30;;;22.60;48.80;;;;;;5054783;28;20480;-75
2023/06/30 06:05:42;;;;;;;1.05;0.38;;;22.60;48.80;;;;;;5054659;28;20033;-74
2023/06/30 06:08:08;;;;;;;3.25;0.60;;;22.60;48.80;;;;;;5054667;28;20095;-74
2023/06/30 06:10:34;;;;;;;0.90;0.32;;;22.60;48.80;;;;;;5054667;28;20060;-74
2023/06/30 06:12:59;;;;;;;1.13;0.38;;;22.60;49.00;;;;;;5054478;28;20146;-75
2023/06/30 06:15:25;;;;;;;2.00;0.80;;;22.60;49.00;;;;;;5058005;28;20540;-76
2023/06/30 06:17:51;;;;;;;1.58;0.60;;;22.60;49.10;;;;;;5057693;28;20533;-76
2023/06/30 06:20:18;;;;;;;1.27;0.73;;;22.70;49.20;;;;;;5054694;28;20100;-75
2023/06/30 06:22:43;;;;;;;1.45;0.77;;;22.60;49.30;;;;;;5055342;28;20122;-74
2023/06/30 06:25:10;;;;;;;2.58;0.60;;;22.60;49.80;;;;;;5054571;28;20163;-81
2023/06/30 06:27:36;;;;;;;3.03;0.60;;;22.60;49.30;;;;;;5055324;28;20013;-76
2023/06/30 06:30:03;;;;;;;3.10;0.95;;;22.60;49.30;;;;;;5054121;28;20394;-76
2023/06/30 06:32:29;;;;;;;1.98;0.80;;;22.60;49.30;;;;;;5054254;28;20021;-76
2023/06/30 06:34:54;;;;;;;2.20;0.60;;;22.60;49.30;;;;;;5054267;28;20126;-74
2023/06/30 06:37:20;;;;;;;1.65;0.70;;;22.60;49.30;;;;;;5054028;28;20013;-74
2023/06/30 06:39:46;;;;;;;2.85;0.80;;;22.60;49.40;;;;;;5053998;28;20095;-74
2023/06/30 06:42:11;;;;;;;3.67;0.95;;;22.60;49.30;;;;;;5054151;28;20021;-75
2023/06/30 06:44:37;;;;;;;4.50;1.20;;;22.60;49.40;;;;;;5054014;28;20116;-77
2023/06/30 06:47:40;;;;;;;1.52;0.80;;;22.60;49.40;;;;;;5053836;28;20074;-76
2023/06/30 06:50:07;;;;;;;3.40;0.73;;;22.60;49.30;;;;;;5054022;28;20021;-75
2023/06/30 06:52:32;;;;;;;3.85;0.70;;;22.60;49.40;;;;;;5053898;28;20065;-75
2023/06/30 06:54:58;;;;;;;3.08;0.52;;;22.60;49.50;;;;;;5053729;28;20087;-77
2023/06/30 06:57:24;;;;;;;1.40;0.50;;;22.60;49.50;;;;;;5053960;28;20484;-77
2023/06/30 06:59:49;;;;;;;3.72;0.70;;;22.60;49.60;;;;;;5053535;28;20068;-76
2023/06/30 07:02:15;;;;;;;4.05;0.60;;;22.60;49.70;;;;;;5053832;28;20468;-74
2023/06/30 07:04:40;;;;;;;4.20;1.05;;;22.60;49.60;;;;;;5053836;28;20033;-75
2023/06/30 07:07:06;;;;;;;2.13;0.60;;;22.70;49.90;;;;;;5053845;28;20029;-75
2023/06/30 07:09:33;;;;;;;2.03;0.63;;;22.70;49.70;;;;;;5054006;28;20040;-75
2023/06/30 07:11:59;;;;;;;2.33;0.77;;;22.60;49.60;;;;;;5053402;28;20494;-76
2023/06/30 07:14:25;;;;;;;1.63;0.50;;;22.60;49.50;;;;;;5053862;28;20040;-76
2023/06/30 07:16:51;;;;;;;1.33;0.73;;;22.70;49.50;;;;;;5053452;28;20096;-77
2023/06/30 07:19:17;;;;;;;2.53;0.80;;;22.60;49.50;;;;;;5053842;28;20078;-76
2023/06/30 07:21:43;;;;;;;4.70;1.00;;;22.60;49.40;;;;;;5053527;28;20040;-76
2023/06/30 07:24:09;;;;;;;4.60;0.70;;;22.80;67.30;;;;;;5053903;28;20056;-74
2023/06/30 07:26:36;;;;;;;2.08;0.60;;;22.70;49.70;;;;;;5053008;28;20017;-74
2023/06/30 07:29:01;;;;;;;2.63;0.93;;;22.70;49.70;;;;;;5053315;28;20032;-73
2023/06/30 07:31:30;;;;;;;1.48;0.57;;;22.60;49.60;;;;;;5053226;28;20021;-73
2023/06/30 07:33:56;;;;;;;3.28;0.80;;;22.70;49.70;;;;;;5052871;28;20037;-74
2023/06/30 07:36:22;;;;;;;1.92;0.63;;;22.70;49.60;;;;;;5053143;28;20052;-74
2023/06/30 07:38:48;;;;;;;3.35;0.80;;;22.70;49.60;;;;;;5053564;28;20055;-77
2023/06/30 07:41:15;;;;;;;1.50;0.65;;;22.70;49.70;;;;;;5052946;28;20017;-77
2023/06/30 07:43:41;;;;;;;2.17;0.85;;;22.70;49.60;;;;;;5053097;28;20204;-77
2023/06/30 07:46:07;;;;;;;4.00;1.02;;;22.70;49.50;;;;;;5053370;28;20100;-77
2023/06/30 07:48:33;;;;;;;3.08;1.10;;;22.70;49.50;;;;;;5053083;28;20456;-77
2023/06/30 07:50:59;;;;;;;1.58;0.50;;;22.70;49.50;;;;;;5053359;28;20028;-78
2023/06/30 07:53:25;;;;;;;2.67;0.95;;;22.70;49.50;;;;;;5053414;28;20029;-77
2023/06/30 07:55:51;;;;;;;1.27;0.50;;;22.70;49.40;;;;;;5053060;28;20053;-77
2023/06/30 07:58:17;;;;;;;1.52;0.70;;;22.80;49.40;;;;;;5052785;28;20021;-78
2023/06/30 08:00:43;;;;;;;3.88;0.80;;;22.80;49.30;;;;;;5053001;28;20391;-78
2023/06/30 08:03:09;;;;;;;2.65;0.73;;;22.90;49.20;;;;;;5052894;28;20037;-78
2023/06/30 08:05:35;;;;;;;3.85;0.80;;;22.90;49.20;;;;;;5052664;28;20029;-78
2023/06/30 08:08:02;;;;;;;1.63;0.40;;;22.90;49.20;;;;;;5052633;28;20033;-78
2023/06/30 08:10:28;;;;;;;3.50;0.65;;;22.90;49.20;;;;;;5052802;28;20490;-77
2023/06/30 08:12:54;;;;;;;3.05;0.65;;;22.90;49.30;;;;;;5052482;28;20041;-78
2023/06/30 08:15:20;;;;;;;1.88;0.80;;;23.00;49.20;;;;;;5052390;28;20123;-77
2023/06/30 08:17:46;;;;;;;2.10;0.68;;;23.00;49.30;;;;;;5052347;28;20499;-78
2023/06/30 08:26:28;;;;;;;2.20;0.60;;;23.00;49.60;;;;;;4976121;28;20410;-70
2023/06/30 08:28:55;;;;;;;1.20;0.60;;;23.00;49.60;;;;;;4992838;28;20026;-71
2023/06/30 08:31:20;;;;;;;2.63;0.80;;;23.10;49.60;;;;;;4992975;28;20113;-71
2023/06/30 08:33:46;;;;;;;3.88;0.70;;;23.00;49.80;;;;;;4992336;28;20045;-72
2023/06/30 08:36:12;;;;;;;1.38;0.70;;;23.10;50.00;;;;;;4992629;28;20108;-71
2023/06/30 08:38:37;;;;;;;3.40;0.93;;;23.10;49.80;;;;;;4992773;28;20064;-76
2023/06/30 08:41:04;;;;;;;2.72;0.82;;;23.10;49.80;;;;;;4993184;28;20034;-73
2023/06/30 08:43:31;;;;;;;1.27;0.60;;;23.20;49.80;;;;;;4992526;28;20022;-79
2023/06/30 08:45:59;;;;;;;1.58;0.68;;;23.20;49.70;;;;;;4992391;28;20392;-76
2023/06/30 08:48:27;;;;;;;2.95;0.77;;;23.20;49.70;;;;;;4992376;28;20566;-77
2023/06/30 08:50:53;;;;;;;2.10;0.70;;;23.30;49.70;;;;;;4992271;28;20041;-76
2023/06/30 08:53:19;;;;;;;3.95;0.80;;;23.40;49.90;;;;;;4992311;28;20388;-77
2023/06/30 08:55:46;;;;;;;3.15;1.00;;;23.40;49.80;;;;;;4992361;28;20038;-77
2023/06/30 08:58:12;;;;;;;1.70;0.75;;;23.40;49.90;;;;;;4992400;28;20037;-77
2023/06/30 09:00:38;;;;;;;1.80;0.70;;;23.40;49.90;;;;;;4992242;28;20024;-76
2023/06/30 09:03:05;;;;;;;2.50;0.50;;;23.40;50.00;;;;;;4992197;28;20030;-77
2023/06/30 09:05:34;;;;;;;2.10;0.50;;;23.40;50.10;;;;;;4992231;28;20019;-77
2023/06/30 09:08:03;;;;;;;1.48;0.60;;;23.50;50.40;;;;;;4992108;28;20026;-76
2023/06/30 09:10:37;;;;;;;2.42;0.75;;;23.40;50.70;;;;;;4991177;28;20022;-77
2023/06/30 09:13:03;;;;;;;1.00;0.90;;;23.40;50.80;;;;;;4992684;28;20370;-71
2023/06/30 09:15:30;;;;;;;3.00;0.82;;;23.50;50.60;;;;;;4991822;28;20108;-71
2023/06/30 09:17:56;;;;;;;1.17;0.57;;;23.40;50.90;;;;;;4991845;28;20069;-71
2023/06/30 09:20:22;;;;;;;0.77;0.52;;;23.40;51.10;;;;;;4991912;28;20054;-71
2023/06/30 09:22:48;;;;;;;3.05;0.82;;;23.40;51.20;;;;;;4991681;28;20027;-72
2023/06/30 09:25:26;;;;;;;1.50;0.60;;;23.40;51.40;;;;;;4992194;28;20053;-72
2023/06/30 09:27:55;;;;;;;2.13;0.93;;;23.50;51.20;;;;;;4991706;28;20054;-71
2023/06/30 09:30:36;;;;;;;5.65;1.00;;;23.60;50.90;;;;;;4992024;28;20026;-72
2023/06/30 09:33:02;;;;;;;2.28;0.70;;;23.70;50.60;;;;;;4991741;28;20049;-71
2023/06/30 09:35:39;;;;;;;1.45;0.60;;;23.80;50.40;;;;;;4991593;28;20121;-71
2023/06/30 09:38:10;;;;;;;2.53;0.82;;;23.80;50.30;;;;;;4991919;28;20027;-71
2023/06/30 09:40:36;;;;;;;1.40;0.75;;;23.90;50.20;;;;;;4991928;28;20030;-71
2023/06/30 09:43:05;;;;;;;2.25;0.82;;;23.90;50.70;;;;;;4992475;28;20102;-72
2023/06/30 09:45:31;;;;;;;2.35;0.63;;;24.00;50.00;;;;;;4991869;28;20388;-72
2023/06/30 09:47:57;;;;;;;2.20;0.65;;;24.00;50.00;;;;;;4991860;28;20034;-71
2023/06/30 09:50:33;;;;;;;1.58;0.80;;;24.00;50.00;;;;;;4991593;28;20022;-72
2023/06/30 09:53:00;;;;;;;3.60;0.82;;;24.10;49.80;;;;;;4991524;28;20029;-77
2023/06/30 09:55:26;;;;;;;2.25;0.90;;;24.10;49.80;;;;;;4991641;28;20035;-76
2023/06/30 09:57:55;;;;;;;1.75;0.77;;;24.10;49.80;;;;;;4991916;28;20077;-75
2023/06/30 10:00:22;;;;;;;2.40;0.93;;;24.20;49.70;;;;;;4992051;28;20354;-76
2023/06/30 10:03:05;;;;;;;1.77;0.68;;;24.20;49.60;;;;;;4991907;28;20027;-76
2023/06/30 10:05:32;;;;;;;0.88;0.35;;;24.40;49.60;;;;;;4991629;28;20429;-78
2023/06/30 10:08:00;;;;;;;2.60;0.60;;;24.40;49.50;;;;;;4992050;28;20031;-77
2023/06/30 10:10:27;;;;;;;3.83;0.50;;;24.40;49.30;;;;;;4992289;28;20046;-72
2023/06/30 10:12:55;;;;;;;2.72;0.85;;;24.40;49.30;;;;;;4991278;28;20038;-72
2023/06/30 10:15:21;;;;;;;2.90;0.70;;;24.50;49.30;;;;;;4991526;28;20421;-72
2023/06/30 10:17:48;;;;;;;2.83;0.52;;;24.50;49.10;;;;;;4991650;28;20027;-75
2023/06/30 10:20:14;;;;;;;2.78;0.80;;;24.50;48.90;;;;;;4991532;28;20363;-74
2023/06/30 10:22:42;;;;;;;0.63;0.40;;;24.60;48.50;;;;;;4991357;28;20023;-79
2023/06/30 10:25:11;;;;;;;1.70;0.93;;;24.50;49.00;;;;;;4991679;28;20077;-82
2023/06/30 10:27:38;;;;;;;1.70;0.70;;;24.50;49.00;;;;;;4991217;28;20076;-79
2023/06/30 10:30:05;;;;;;;1.50;0.60;;;24.60;49.20;;;;;;4991375;28;20029;-80
2023/06/30 10:32:32;;;;;;;1.27;0.80;;;24.60;49.20;;;;;;4991276;28;20046;-79
2023/06/30 10:34:59;;;;;;;1.98;0.93;;;24.60;49.00;;;;;;4994705;28;20493;-81
2023/06/30 10:37:26;;;;;;;2.40;1.00;;;24.60;49.10;;;;;;4994746;28;20029;-79
2023/06/30 10:39:52;;;;;;;1.52;0.80;;;24.60;48.90;;;;;;4995286;28;20045;-77
2023/06/30 10:42:20;;;;;;;1.63;0.70;;;24.70;49.20;;;;;;4994978;28;20019;-78
2023/06/30 10:44:49;;;;;;;2.50;0.80;;;24.70;49.00;;;;;;4994837;28;20550;-78
2023/06/30 10:47:22;;;;;;;2.45;0.82;;;24.70;48.60;;;;;;4994486;28;20098;-78
2023/06/30 10:49:53;;;;;;;3.08;0.82;;;24.80;49.00;;;;;;4994735;28;20022;-73
2023/06/30 10:52:26;;;;;;;2.90;1.00;;;24.80;47.50;;;;;;4994217;28;20034;-71
2023/06/30 10:54:52;;;;;;;2.25;0.60;;;24.90;47.40;;;;;;4994104;28;20046;-72
2023/06/30 10:57:23;;;;;;;1.83;0.50;;;24.90;48.10;;;;;;4994066;28;20057;-72
2023/06/30 11:00:03;;;;;;;3.30;0.70;;;25.00;48.50;;;;;;4994149;28;20029;-72
2023/06/30 11:02:31;;;;;;;2.28;1.02;;;24.80;63.00;;;;;;4994240;28;20096;-71
2023/06/30 11:05:26;;;;;;;4.35;1.10;;;25.00;46.90;;;;;;4994299;28;20061;-73
2023/06/30 11:07:54;;;;;;;1.25;0.60;;;25.10;47.20;;;;;;4994264;28;20018;-72
2023/06/30 11:10:32;;;;;;;2.65;0.90;;;25.10;48.30;;;;;;4994053;28;20108;-74
2023/06/30 11:13:00;;;;;;;2.65;0.77;;;25.10;46.40;;;;;;4994084;28;20100;-73
2023/06/30 11:15:44;;;;;;;3.75;1.05;;;25.00;47.50;;;;;;4993897;28;20038;-74
2023/06/30 11:18:20;;;;;;;2.00;0.70;;;24.50;48.10;;;;;;4993852;28;20049;-74
2023/06/30 11:20:59;;;;;;;3.45;0.93;;;25.10;48.50;;;;;;4993876;28;20037;-74
2023/06/30 11:23:32;;;;;;;2.05;0.70;;;26.40;49.30;;;;;;4993984;28;20077;-73
2023/06/30 11:26:10;;;;;;;3.22;0.90;;;25.10;48.70;;;;;;4994323;28;20076;-74
2023/06/30 11:28:39;;;;;;;0.90;0.50;;;25.10;48.60;;;;;;4993936;28;20038;-73
2023/06/30 11:31:05;;;;;;;2.20;1.00;;;25.10;48.70;;;;;;4992848;28;20122;-73
2023/06/30 11:33:31;;;;;;;3.15;0.73;;;25.10;48.80;;;;;;4993000;28;20031;-73
2023/06/30 11:35:59;;;;;;;1.70;0.80;;;25.10;48.70;;;;;;4993115;28;20026;-73
2023/06/30 11:38:26;;;;;;;1.55;0.70;;;25.20;48.80;;;;;;4993095;28;20014;-73
2023/06/30 11:40:52;;;;;;;2.25;0.70;;;25.20;48.70;;;;;;4992707;28;20036;-73
2023/06/30 11:43:22;;;;;;;1.70;0.70;;;25.20;48.70;;;;;;4991489;28;20101;-73
2023/06/30 11:45:56;;;;;;;1.52;0.80;;;25.20;48.70;;;;;;4993486;28;20369;-72
2023/06/30 11:48:22;;;;;;;0.98;0.50;;;25.30;48.60;;;;;;4993603;28;20096;-72
2023/06/30 11:50:48;;;;;;;1.35;0.85;;;25.40;48.50;;;;;;4993190;28;20512;-72
2023/06/30 11:53:17;;;;;;;1.83;0.75;;;25.30;47.80;;;;;;4993949;28;20109;-75
2023/06/30 11:55:44;;;;;;;1.97;0.80;;;25.40;48.60;;;;;;4993485;28;20030;-72
2023/06/30 11:58:10;;;;;;;4.57;0.98;;;25.40;48.40;;;;;;4993491;28;20031;-73
2023/06/30 12:00:36;;;;;;;3.88;1.30;;;25.40;48.20;;;;;;4993178;28;20060;-72
2023/06/30 12:03:02;;;;;;;2.20;0.60;;;25.50;48.10;;;;;;4993461;28;20073;-72
2023/06/30 12:05:28;;;;;;;2.50;1.00;;;25.50;48.10;;;;;;4993404;28;20086;-85
2023/06/30 12:07:55;;;;;;;1.50;0.70;;;25.50;48.00;;;;;;4993903;28;20150;-86
2023/06/30 12:10:33;;;;;;;1.35;0.70;;;25.50;48.10;;;;;;4994208;28;20443;-85
2023/06/30 12:13:00;;;;;;;1.23;0.90;;;25.50;48.10;;;;;;4993504;28;20030;-82
2023/06/30 12:15:29;;;;;;;1.90;0.80;;;25.50;48.70;;;;;;4993683;28;20042;-83
2023/06/30 12:17:55;;;;;;;1.20;0.75;;;25.50;48.30;;;;;;4993564;28;20381;-85
2023/06/30 12:20:29;;;;;;;1.25;0.65;;;25.50;47.80;;;;;;4993838;28;20026;-86
2023/06/30 12:22:57;;;;;;;0.82;0.60;;;25.60;47.80;;;;;;4993781;28;20023;-83
2023/06/30 12:25:30;;;;;;;0.95;0.60;;;25.60;47.70;;;;;;4993506;28;20053;-84
2023/06/30 12:27:56;;;;;;;2.03;1.00;;;25.70;47.70;;;;;;4993329;28;20078;-84
2023/06/30 12:30:23;;;;;;;1.30;0.90;;;25.80;47.50;;;;;;4993313;28;20035;-84
2023/06/30 12:33:00;;;;;;;1.95;0.98;;;26.50;63.30;;;;;;4993058;28;20093;-86
2023/06/30 12:35:37;;;;;;;1.00;0.75;;;26.10;47.10;;;;;;4991446;28;20385;-73
2023/06/30 12:38:08;;;;;;;1.23;0.73;;;26.20;46.60;;;;;;4992486;28;20346;-72
2023/06/30 12:40:34;;;;;;;1.60;0.60;;;26.20;46.50;;;;;;4992388;28;20062;-73
2023/06/30 12:42:59;;;;;;;1.55;0.77;;;26.20;46.60;;;;;;4992309;28;20061;-72
2023/06/30 12:45:25;;;;;;;2.88;0.90;;;26.20;46.60;;;;;;4992243;28;20045;-73
2023/06/30 12:47:51;;;;;;;1.35;0.77;;;26.20;46.60;;;;;;4992249;28;20380;-73
2023/06/30 12:50:17;;;;;;;2.53;0.90;;;26.60;62.70;;;;;;4992771;28;20029;-83
2023/06/30 12:52:42;;;;;;;2.38;0.68;;;26.30;46.60;;;;;;4992845;28;20092;-84
2023/06/30 12:55:09;;;;;;;3.25;1.00;;;26.30;46.30;;;;;;4992589;28;20049;-85